Details From KCRE - Grand Strand
To KEWN - Craven Co Rgnl
Flight Number -
Tags Decoded
Created
Modified
Stats Distance 114 nm / 211 km
Max Altitude 0 ft / 0 m
Waypoints 4
Social Downloads 2
Likes 0
Share VATSIM

Download

Looking for another format? Having issues loading an existing format? Contact us
Advertisement - Login to hide

Notes

Decoded

Route

KCRE ILM KUYEN KEWN

ID Type Via Altitude Latitude Longitude Leg Dist Tot Dist Heading (true) Name
O KCRE APT - 0 ft / 0 m 33.80603˚ -78.73105˚ - 0 nm - -
ILM VOR - 0 ft / 0 m 34.35167˚ -77.87439˚ 53 nm 53 nm 52° / 53° WILMINGTON VORTAC
KUYEN FIX - 0 ft / 0 m 34.91181˚ -77.15900˚ 48 nm 102 nm 46° / 47° -
O KEWN APT - 0 ft / 0 m 35.07704˚ -77.04787˚ 11 nm 113 nm 29° / 29° -

Altitude Profile

Advertisement - Login to hide

KCRE

Details ICAO KCRE
Name Grand Strand
Region United States
Timezone America/New_York (UTC-5.0)
Stats Elevation 32 ft / 10 m (AMSL)
Location 33.811749° -78.723941°
Runways 1
Magnetic Variation 8.862° W

METAR

KCRE 180853Z AUTO 00000KT 9SM -RA OVC055 13/11 A3016 RMK AO1 RAB51 SLP215 P0000 60000 T01280106 58010

Decode

TAF

TAF KCRE 180531Z 1806/1906 00000KT P6SM OVC035 FM181200 VRB06KT P6SM OVC020 FM182000 23006KT P6SM BKN015 FM182100 22007KT 2SM BR BKN015 FM190000 25008KT 1SM BR BKN008

Decode

Departure Runways

ID Width Length Bearing (true) Bearing (mag) Surface Threshold Offset Overrun Length
05 98 ft / 30 m 5,998 ft / 1,828 m 45.94° 54.80° Asphalt 0 ft / 0 m 0 ft / 0 m
23 98 ft / 30 m 5,998 ft / 1,828 m 225.94° 234.80° Asphalt 0 ft / 0 m 0 ft / 0 m

KEWN

Details ICAO KEWN (EWN)
Name Craven Co Rgnl
Region United States
Timezone America/New_York (UTC-5.0)
Stats Elevation 18 ft / 5 m (AMSL)
Location 35.073096° -77.042880°
Runways 2
Magnetic Variation 10.086° W

METAR

KEWN 180854Z AUTO 00000KT 10SM OVC039 10/08 A3018 RMK AO2 SLP218 T01000078 56004

Decode

TAF

KEWN 180521Z 1806/1906 24004KT P6SM BKN035 OVC050 FM181500 26004KT P6SM SCT025 FM190100 00000KT P6SM FEW025 BKN200

Decode

Destination Runways

ID Width Length Bearing (true) Bearing (mag) Surface Threshold Offset Overrun Length
04 150 ft / 46 m 6,008 ft / 1,831 m 30.60° 40.69° Asphalt 0 ft / 0 m 0 ft / 0 m
13 150 ft / 46 m 3,999 ft / 1,219 m 128.07° 138.16° Asphalt 0 ft / 0 m 0 ft / 0 m
22 150 ft / 46 m 6,008 ft / 1,831 m 210.61° 220.70° Asphalt 0 ft / 0 m 0 ft / 0 m
31 150 ft / 46 m 3,999 ft / 1,219 m 308.07° 318.16° Asphalt 0 ft / 0 m 0 ft / 0 m

Approach Navaids

Runway Type Ident Frequency Range Bearing (true) Bearing (mag) Slope Elevation
04 Localiser IEWN 110.50 MHz 18 nm / 33 km 30.60° 40.69° - 18 ft / 5 m (AMSL)
04 Glidescope IEWN 110.50 MHz 10 nm / 19 km 30.60° 40.69° 3.00° 15 ft / 5 m (AMSL)